Time;durP1;ratioP1;P1;durP2;ratioP2;P2;SDS_P1;SDS_P2;PMS_P1;PMS_P2;Temp;Humidity;BMP_temperature;BMP_pressure;BME280_temperature;BME280_humidity;BME280_pressure;Samples;Min_cycle;Max_cycle;Signal;HPM_P1;HPM_P2
2022/03/16 00:01:18;;;;;;;5.57;2.30;;;4.70;99.90;;;;;;5057203;28;20476;-81
2022/03/16 00:03:44;;;;;;;0.75;0.28;;;4.80;99.90;;;;;;5056150;28;20617;-81
2022/03/16 00:06:10;;;;;;;0.43;0.43;;;4.70;99.90;;;;;;5074005;28;20131;-81
2022/03/16 00:08:36;;;;;;;0.20;0.10;;;4.70;99.90;;;;;;5073737;28;20044;-82
2022/03/16 00:11:02;;;;;;;0.15;0.10;;;4.70;99.90;;;;;;5073832;28;20395;-81
2022/03/16 00:13:27;;;;;;;4.22;0.35;;;4.70;99.90;;;;;;5057025;28;20047;-82
2022/03/16 00:15:53;;;;;;;0.30;0.30;;;4.70;99.90;;;;;;5073036;28;20059;-82
2022/03/16 00:18:19;;;;;;;0.17;0.10;;;4.60;99.90;;;;;;5056896;28;20056;-82
2022/03/16 00:20:48;;;;;;;5.15;0.70;;;4.60;99.90;;;;;;5056827;28;20065;-82
2022/03/16 00:23:15;;;;;;;0.88;0.52;;;4.60;99.90;;;;;;5073940;28;20033;-82
2022/03/16 00:25:41;;;;;;;1.95;0.52;;;4.60;99.90;;;;;;5057213;28;20055;-82
2022/03/16 00:28:07;;;;;;;0.70;0.20;;;4.60;99.90;;;;;;5056837;28;20059;-81
2022/03/16 00:30:33;;;;;;;0.90;0.45;;;4.60;99.90;;;;;;5056632;28;20139;-81
2022/03/16 00:32:59;;;;;;;0.55;0.22;;;4.60;99.90;;;;;;5073297;28;20540;-81
2022/03/16 00:35:25;;;;;;;0.75;0.43;;;4.70;99.90;;;;;;5056577;28;20044;-81
2022/03/16 00:37:51;;;;;;;0.30;0.30;;;4.70;99.90;;;;;;5056632;28;20060;-81
2022/03/16 00:40:16;;;;;;;0.00;0.00;;;4.70;99.90;;;;;;5073200;28;20040;-81
2022/03/16 00:42:42;;;;;;;1.00;0.40;;;4.70;99.90;;;;;;5073036;28;20498;-82
2022/03/16 00:45:08;;;;;;;0.52;0.40;;;4.70;99.90;;;;;;5056443;28;20037;-82
2022/03/16 00:47:34;;;;;;;1.02;0.75;;;4.80;99.90;;;;;;5073388;28;20450;-82
2022/03/16 00:50:00;;;;;;;0.40;0.40;;;4.80;99.90;;;;;;5073017;28;20041;-82
2022/03/16 00:52:25;;;;;;;1.00;0.73;;;4.80;99.90;;;;;;5055844;28;20048;-82
2022/03/16 00:54:51;;;;;;;0.90;0.60;;;4.90;99.90;;;;;;5056269;28;20037;-81
2022/03/16 00:57:17;;;;;;;0.40;0.40;;;4.80;99.90;;;;;;5056089;28;20133;-82
2022/03/16 00:59:42;;;;;;;0.05;0.00;;;4.80;99.90;;;;;;5072842;28;20052;-82
2022/03/16 01:02:08;;;;;;;0.10;0.10;;;4.80;99.90;;;;;;5072754;28;20040;-81
2022/03/16 01:04:34;;;;;;;0.00;0.00;;;4.80;99.90;;;;;;5073148;28;20127;-82
2022/03/16 01:06:59;;;;;;;0.40;0.40;;;4.80;99.90;;;;;;5056027;28;20051;-82
2022/03/16 01:09:25;;;;;;;0.52;0.52;;;4.70;99.90;;;;;;5055706;28;20484;-82
2022/03/16 01:11:51;;;;;;;0.25;0.20;;;4.70;99.90;;;;;;5055936;28;20056;-82
2022/03/16 01:14:17;;;;;;;0.10;0.10;;;4.80;99.90;;;;;;5055755;28;20048;-81
2022/03/16 01:16:43;;;;;;;0.30;0.22;;;4.80;99.90;;;;;;5072147;28;20064;-81
2022/03/16 01:19:09;;;;;;;0.65;0.40;;;4.70;99.90;;;;;;5055743;28;20074;-81
2022/03/16 01:21:35;;;;;;;0.95;0.35;;;4.70;99.90;;;;;;5072607;28;20093;-82
2022/03/16 01:24:00;;;;;;;0.10;0.10;;;4.70;99.90;;;;;;5055625;28;20067;-81
2022/03/16 01:26:26;;;;;;;0.08;0.00;;;4.80;99.90;;;;;;5072520;28;20048;-82
2022/03/16 01:28:52;;;;;;;0.35;0.35;;;4.80;99.90;;;;;;5055942;28;20045;-82
2022/03/16 01:31:19;;;;;;;0.30;0.28;;;4.80;99.90;;;;;;5055539;28;20155;-81
2022/03/16 01:33:45;;;;;;;0.90;0.45;;;4.80;99.90;;;;;;5072639;28;20055;-82
2022/03/16 01:36:10;;;;;;;1.30;0.50;;;4.90;99.90;;;;;;5072443;28;20044;-82
2022/03/16 01:38:36;;;;;;;0.00;0.00;;;4.90;99.90;;;;;;5056047;28;20051;-82
2022/03/16 01:41:02;;;;;;;0.10;0.10;;;4.90;99.90;;;;;;5072592;28;20051;-82
2022/03/16 01:43:28;;;;;;;3.55;2.00;;;4.90;99.90;;;;;;5055374;28;20049;-81
2022/03/16 01:45:53;;;;;;;0.38;0.38;;;4.90;99.90;;;;;;5072290;28;20041;-82
2022/03/16 01:48:19;;;;;;;0.20;0.10;;;4.90;99.90;;;;;;5072334;28;20094;-82
2022/03/16 01:50:47;;;;;;;1.85;1.02;;;4.80;99.90;;;;;;5072359;28;20048;-82
2022/03/16 01:53:13;;;;;;;1.02;0.55;;;4.80;99.90;;;;;;5072116;28;20064;-81
2022/03/16 01:55:40;;;;;;;2.22;0.55;;;4.80;99.90;;;;;;5072144;28;20106;-81
2022/03/16 01:58:06;;;;;;;0.95;0.20;;;4.80;99.90;;;;;;5072154;28;20462;-82
2022/03/16 02:00:32;;;;;;;0.10;0.10;;;4.80;99.90;;;;;;5055616;28;20053;-82
2022/03/16 02:02:58;;;;;;;0.22;0.22;;;4.80;99.90;;;;;;5072156;28;20048;-81
2022/03/16 02:05:23;;;;;;;0.85;0.22;;;4.60;99.90;;;;;;5055629;28;20128;-82
2022/03/16 02:07:50;;;;;;;2.10;0.82;;;4.50;99.90;;;;;;5055152;28;20057;-81
2022/03/16 02:10:17;;;;;;;0.00;0.00;;;4.50;99.90;;;;;;5055336;28;20098;-82
2022/03/16 02:12:45;;;;;;;0.10;0.00;;;4.40;99.90;;;;;;5072083;28;20044;-82
2022/03/16 02:15:11;;;;;;;1.30;1.00;;;4.40;99.90;;;;;;5055261;28;20369;-82
2022/03/16 02:17:37;;;;;;;1.95;0.52;;;4.30;99.90;;;;;;5055648;28;20052;-82
2022/03/16 02:20:03;;;;;;;4.65;0.63;;;4.30;99.90;;;;;;5055324;28;20056;-82
2022/03/16 02:22:32;;;;;;;1.45;0.70;;;4.30;99.90;;;;;;5072017;28;20044;-82
2022/03/16 02:24:58;;;;;;;0.20;0.20;;;4.30;99.90;;;;;;5054783;28;20040;-82
2022/03/16 02:27:24;;;;;;;0.00;0.00;;;4.20;99.90;;;;;;5075187;28;20093;-82
2022/03/16 02:29:49;;;;;;;0.22;0.22;;;4.20;99.90;;;;;;5075736;28;20052;-82
2022/03/16 02:32:15;;;;;;;0.00;0.00;;;4.10;99.90;;;;;;5058929;28;20046;-82
2022/03/16 02:34:41;;;;;;;0.20;0.15;;;4.00;99.90;;;;;;5059053;28;20046;-81
2022/03/16 02:37:06;;;;;;;0.32;0.30;;;3.90;99.90;;;;;;5058862;28;20044;-81
2022/03/16 02:39:32;;;;;;;0.85;0.63;;;3.90;99.90;;;;;;5075510;28;20067;-82
2022/03/16 02:41:58;;;;;;;0.75;0.30;;;3.80;99.90;;;;;;5058596;28;20471;-81
2022/03/16 02:44:23;;;;;;;0.55;0.10;;;3.70;99.90;;;;;;5058491;28;20047;-81
2022/03/16 02:46:49;;;;;;;1.00;0.47;;;3.60;99.90;;;;;;5075379;28;20044;-82
2022/03/16 02:49:15;;;;;;;0.73;0.52;;;3.60;99.90;;;;;;5058430;28;20078;-81
2022/03/16 02:51:41;;;;;;;0.30;0.30;;;3.50;99.90;;;;;;5075406;28;20040;-82
2022/03/16 02:54:06;;;;;;;0.10;0.10;;;3.50;99.90;;;;;;5075064;28;20400;-81
2022/03/16 02:56:32;;;;;;;0.30;0.30;;;3.50;99.90;;;;;;5075101;28;20054;-82
2022/03/16 02:58:58;;;;;;;0.08;0.08;;;3.40;99.90;;;;;;5075311;28;20041;-81
2022/03/16 03:01:23;;;;;;;1.48;0.20;;;3.40;99.90;;;;;;5058733;28;20040;-82
2022/03/16 03:03:49;;;;;;;4.88;0.40;;;3.40;99.90;;;;;;5074966;28;20045;-82
2022/03/16 03:06:14;;;;;;;1.23;0.25;;;3.40;99.90;;;;;;5075104;28;20400;-81
2022/03/16 03:08:40;;;;;;;0.17;0.17;;;3.30;99.90;;;;;;5074938;28;20052;-82
2022/03/16 03:11:06;;;;;;;0.32;0.32;;;3.30;99.90;;;;;;5058254;28;20044;-81
2022/03/16 03:13:31;;;;;;;0.08;0.00;;;3.20;99.90;;;;;;5074915;28;20064;-81
2022/03/16 03:15:57;;;;;;;0.80;0.80;;;3.30;99.90;;;;;;5074376;28;20059;-81
2022/03/16 03:18:23;;;;;;;0.30;0.30;;;3.30;99.90;;;;;;5058366;28;20052;-81
2022/03/16 03:20:48;;;;;;;0.52;0.52;;;3.40;99.90;;;;;;5074911;28;20139;-81
2022/03/16 03:23:14;;;;;;;0.93;0.65;;;3.30;99.90;;;;;;5074678;28;20044;-81
2022/03/16 03:25:40;;;;;;;0.10;0.10;;;3.30;99.90;;;;;;5058016;28;20084;-81
2022/03/16 03:28:05;;;;;;;0.25;0.25;;;3.30;99.90;;;;;;5074477;28;20135;-81
2022/03/16 03:30:31;;;;;;;0.95;0.45;;;3.30;99.90;;;;;;5057773;28;20044;-81
2022/03/16 03:32:57;;;;;;;3.28;0.82;;;3.30;99.90;;;;;;5074529;28;20045;-81
2022/03/16 03:35:22;;;;;;;1.40;0.13;;;3.30;99.90;;;;;;5074469;28;20049;-81
2022/03/16 03:37:51;;;;;;;0.10;0.10;;;3.30;99.90;;;;;;5074387;28;20475;-82
2022/03/16 03:40:16;;;;;;;1.15;0.30;;;3.20;99.90;;;;;;5074442;28;20131;-81
2022/03/16 03:42:42;;;;;;;0.17;0.03;;;3.20;99.90;;;;;;5057721;28;20498;-81
2022/03/16 03:45:08;;;;;;;0.20;0.20;;;3.10;99.90;;;;;;5074162;28;20070;-81
2022/03/16 03:47:34;;;;;;;1.13;0.85;;;3.10;99.90;;;;;;5074033;28;20480;-82
2022/03/16 03:49:59;;;;;;;0.17;0.17;;;3.00;99.90;;;;;;5074152;28;20041;-81
2022/03/16 03:52:25;;;;;;;0.10;0.10;;;2.90;99.90;;;;;;5074169;28;20429;-81
2022/03/16 03:54:51;;;;;;;0.50;0.50;;;2.80;99.90;;;;;;5074275;28;20059;-81
2022/03/16 03:57:16;;;;;;;0.00;0.00;;;2.80;99.90;;;;;;5057572;28;20052;-81
2022/03/16 03:59:43;;;;;;;0.90;0.25;;;2.70;99.90;;;;;;5057253;28;20468;-82
2022/03/16 04:02:09;;;;;;;0.73;0.00;;;2.70;99.90;;;;;;5073973;28;20052;-81
2022/03/16 04:04:35;;;;;;;0.10;0.10;;;2.70;99.90;;;;;;5056806;28;20056;-81
2022/03/16 04:07:00;;;;;;;0.00;0.00;;;2.60;99.90;;;;;;5073714;28;20495;-81
2022/03/16 04:09:26;;;;;;;0.10;0.10;;;2.60;99.90;;;;;;5056990;28;20079;-82
2022/03/16 04:11:52;;;;;;;0.00;0.00;;;2.60;99.90;;;;;;5073887;28;20047;-81
2022/03/16 04:14:18;;;;;;;0.00;0.00;;;2.60;99.90;;;;;;5073707;28;20131;-81
2022/03/16 04:16:43;;;;;;;0.00;0.00;;;2.60;99.90;;;;;;5056428;28;20060;-82
2022/03/16 04:19:09;;;;;;;0.13;0.10;;;2.60;99.90;;;;;;5073529;28;20435;-82
2022/03/16 04:21:35;;;;;;;0.15;0.15;;;2.60;99.90;;;;;;5056900;28;20419;-81
2022/03/16 04:24:02;;;;;;;0.00;0.00;;;2.60;99.90;;;;;;5056745;28;20496;-81
2022/03/16 04:26:28;;;;;;;0.13;0.10;;;2.60;99.90;;;;;;5073202;28;20443;-82
2022/03/16 04:28:53;;;;;;;0.00;0.00;;;2.60;99.90;;;;;;5056868;28;20052;-81
2022/03/16 04:31:21;;;;;;;0.00;0.00;;;2.60;99.90;;;;;;5057323;28;20071;-81
2022/03/16 04:33:46;;;;;;;0.45;0.45;;;2.60;99.90;;;;;;5056742;28;20365;-81
2022/03/16 04:36:12;;;;;;;0.00;0.00;;;2.50;99.90;;;;;;5056964;28;20086;-81
2022/03/16 04:38:38;;;;;;;0.57;0.55;;;2.50;99.90;;;;;;5073104;28;20066;-82
2022/03/16 04:41:04;;;;;;;0.10;0.08;;;2.50;99.90;;;;;;5056539;28;20070;-82
2022/03/16 04:43:30;;;;;;;0.25;0.25;;;2.50;99.90;;;;;;5056875;28;20082;-82
2022/03/16 04:45:56;;;;;;;1.17;0.52;;;2.50;99.90;;;;;;5073524;28;20052;-82
2022/03/16 04:48:21;;;;;;;0.00;0.00;;;2.50;99.90;;;;;;5055663;28;20055;-81
2022/03/16 04:50:47;;;;;;;0.20;0.20;;;2.50;99.90;;;;;;5056364;28;20139;-81
2022/03/16 04:53:13;;;;;;;0.00;0.00;;;2.50;99.90;;;;;;5072894;28;20052;-81
2022/03/16 04:55:38;;;;;;;0.17;0.17;;;2.50;99.90;;;;;;5072945;28;20055;-81
2022/03/16 04:58:06;;;;;;;0.00;0.00;;;2.50;99.90;;;;;;5056160;28;20044;-82
2022/03/16 05:00:32;;;;;;;0.15;0.15;;;2.50;99.90;;;;;;5056371;28;20040;-81
2022/03/16 05:02:58;;;;;;;0.00;0.00;;;2.50;99.90;;;;;;5072670;28;20098;-81
2022/03/16 05:05:24;;;;;;;0.17;0.17;;;2.40;99.90;;;;;;5056310;28;20044;-82
2022/03/16 05:07:49;;;;;;;1.38;0.10;;;2.40;99.90;;;;;;5072753;28;20472;-82
2022/03/16 05:10:16;;;;;;;0.10;0.10;;;2.40;99.90;;;;;;5072990;28;20489;-81
2022/03/16 05:12:44;;;;;;;0.10;0.10;;;2.40;99.90;;;;;;5073525;28;20048;-82
2022/03/16 05:15:15;;;;;;;0.00;0.00;;;2.40;99.90;;;;;;5073024;28;20072;-82
2022/03/16 05:17:41;;;;;;;2.90;0.40;;;2.30;99.90;;;;;;5055686;28;20507;-82
2022/03/16 05:20:07;;;;;;;2.10;0.40;;;2.30;99.90;;;;;;5055576;28;20048;-82
2022/03/16 05:22:53;;;;;;;0.45;0.45;;;2.40;99.90;;;;;;5055739;28;20048;-82
2022/03/16 05:25:30;;;;;;;0.17;0.17;;;2.30;99.90;;;;;;5055123;28;20058;-82
2022/03/16 05:27:56;;;;;;;0.32;0.20;;;2.30;99.90;;;;;;5072449;28;20484;-82
2022/03/16 05:30:26;;;;;;;1.05;0.32;;;2.30;99.90;;;;;;5072605;28;20087;-82
2022/03/16 05:32:54;;;;;;;0.20;0.20;;;2.20;99.90;;;;;;5055255;28;20052;-82
2022/03/16 05:35:20;;;;;;;2.83;0.82;;;2.30;99.90;;;;;;5073019;28;20048;-82
2022/03/16 05:37:46;;;;;;;0.77;0.47;;;2.40;99.90;;;;;;5056267;28;20052;-81
2022/03/16 05:40:12;;;;;;;0.20;0.20;;;2.40;99.90;;;;;;5072324;28;20044;-82
2022/03/16 05:42:38;;;;;;;1.48;1.10;;;2.50;99.90;;;;;;5072719;28;20086;-82
2022/03/16 05:45:05;;;;;;;0.43;0.43;;;2.50;99.90;;;;;;5072259;28;20044;-82
2022/03/16 05:47:31;;;;;;;0.35;0.32;;;2.50;99.90;;;;;;5072347;28;20115;-82
2022/03/16 05:49:57;;;;;;;0.20;0.10;;;2.60;99.90;;;;;;5055625;28;20118;-82
2022/03/16 05:52:25;;;;;;;0.68;0.68;;;2.50;99.90;;;;;;5072895;28;20182;-82
2022/03/16 05:54:56;;;;;;;0.22;0.22;;;2.50;99.90;;;;;;5072585;28;20193;-82
2022/03/16 05:57:22;;;;;;;0.00;0.00;;;2.50;99.90;;;;;;5055632;28;20055;-82
2022/03/16 05:59:48;;;;;;;0.25;0.25;;;2.60;99.90;;;;;;5055616;28;20040;-82
2022/03/16 06:02:14;;;;;;;1.27;0.65;;;2.60;99.90;;;;;;5059679;28;20049;-82
2022/03/16 06:04:41;;;;;;;0.35;0.22;;;2.60;99.90;;;;;;5075927;28;20147;-82
2022/03/16 06:07:07;;;;;;;1.75;0.70;;;2.70;99.90;;;;;;5076146;28;20538;-82
2022/03/16 06:09:34;;;;;;;0.77;0.77;;;2.80;99.90;;;;;;5059337;28;20048;-82
2022/03/16 06:12:00;;;;;;;0.10;0.00;;;2.90;99.90;;;;;;5059296;28;20056;-82
2022/03/16 06:14:26;;;;;;;0.10;0.10;;;2.90;99.90;;;;;;5059248;28;20045;-82
2022/03/16 06:16:52;;;;;;;0.90;0.45;;;2.90;99.90;;;;;;5075438;28;20070;-82
2022/03/16 06:19:21;;;;;;;0.00;0.00;;;3.10;99.90;;;;;;5059080;28;20048;-82
2022/03/16 06:21:47;;;;;;;0.47;0.47;;;3.00;99.90;;;;;;5076249;28;20524;-81
2022/03/16 06:24:13;;;;;;;0.10;0.10;;;3.10;99.90;;;;;;5059202;28;20037;-81
2022/03/16 06:26:39;;;;;;;0.28;0.28;;;3.20;99.90;;;;;;5076057;28;20052;-81
2022/03/16 06:29:06;;;;;;;0.10;0.10;;;3.30;99.90;;;;;;5075864;28;20045;-81
2022/03/16 06:31:31;;;;;;;0.40;0.17;;;3.40;99.90;;;;;;5075987;28;20119;-81
2022/03/16 06:33:57;;;;;;;0.20;0.20;;;3.60;99.90;;;;;;5075985;28;20051;-81
2022/03/16 06:36:23;;;;;;;0.30;0.30;;;3.60;99.90;;;;;;5076157;28;20045;-81
2022/03/16 06:38:48;;;;;;;3.22;1.02;;;3.70;99.90;;;;;;5075593;28;20138;-81
2022/03/16 06:41:14;;;;;;;3.40;1.35;;;3.80;99.90;;;;;;5058941;28;20052;-81
2022/03/16 06:43:40;;;;;;;0.10;0.05;;;4.00;99.90;;;;;;5075328;28;20373;-81
2022/03/16 06:46:06;;;;;;;5.30;0.50;;;4.20;99.90;;;;;;5075964;28;20498;-81
2022/03/16 06:48:32;;;;;;;0.22;0.20;;;4.50;99.90;;;;;;5075959;28;20040;-81
2022/03/16 06:50:58;;;;;;;1.48;0.38;;;4.80;99.90;;;;;;5059116;28;20050;-81
2022/03/16 06:53:24;;;;;;;0.90;0.80;;;5.00;99.90;;;;;;5075336;28;20127;-81
2022/03/16 06:55:50;;;;;;;0.28;0.28;;;5.10;99.90;;;;;;5075444;28;20400;-81
2022/03/16 06:58:16;;;;;;;0.73;0.55;;;5.10;99.90;;;;;;5058424;28;20059;-81
2022/03/16 07:00:42;;;;;;;0.25;0.25;;;5.00;99.90;;;;;;5075190;28;20045;-81
2022/03/16 07:03:08;;;;;;;0.50;0.50;;;5.00;99.90;;;;;;5075105;28;20044;-81
2022/03/16 07:05:34;;;;;;;1.05;0.95;;;4.90;99.90;;;;;;5058395;28;20056;-81
2022/03/16 07:08:02;;;;;;;0.75;0.55;;;4.80;99.90;;;;;;5058432;28;20090;-81
2022/03/16 07:10:29;;;;;;;0.20;0.10;;;4.70;99.90;;;;;;5074922;28;20396;-82
2022/03/16 07:12:55;;;;;;;1.80;1.23;;;4.70;99.90;;;;;;5074143;28;20044;-82
2022/03/16 07:15:22;;;;;;;0.20;0.20;;;4.70;99.90;;;;;;5074768;28;20052;-82
2022/03/16 07:17:48;;;;;;;0.75;0.32;;;4.80;99.90;;;;;;5075066;28;20109;-81
2022/03/16 07:20:14;;;;;;;1.23;0.85;;;4.80;99.90;;;;;;5075349;28;20047;-81
2022/03/16 07:22:40;;;;;;;1.65;1.25;;;4.90;99.90;;;;;;5074981;28;20044;-81
2022/03/16 07:25:10;;;;;;;2.50;1.55;;;4.90;99.90;;;;;;5074326;28;20047;-82
2022/03/16 07:27:40;;;;;;;1.02;0.22;;;5.00;99.90;;;;;;5074611;28;20086;-82
2022/03/16 07:30:10;;;;;;;1.48;1.20;;;5.20;99.90;;;;;;5074618;28;20404;-82
2022/03/16 07:32:39;;;;;;;3.30;0.93;;;5.40;99.90;;;;;;5075129;28;20440;-82
2022/03/16 07:35:06;;;;;;;1.35;0.70;;;5.80;99.90;;;;;;5057682;28;20056;-81
2022/03/16 07:37:32;;;;;;;3.15;0.40;;;6.20;99.90;;;;;;5074395;28;20044;-81
2022/03/16 07:39:58;;;;;;;6.75;0.75;;;6.70;99.90;;;;;;5074618;28;20040;-81
2022/03/16 07:42:23;;;;;;;1.58;0.50;;;7.00;99.90;;;;;;5073775;28;20048;-83
2022/03/16 07:44:50;;;;;;;2.38;1.13;;;7.10;99.90;;;;;;5061877;28;20545;-81
2022/03/16 07:47:16;;;;;;;0.77;0.73;;;7.20;99.90;;;;;;5044843;28;20052;-81
2022/03/16 07:49:42;;;;;;;0.88;0.55;;;7.20;99.90;;;;;;5062997;28;20068;-83
2022/03/16 07:52:08;;;;;;;0.45;0.45;;;7.20;99.90;;;;;;5062856;28;20045;-82
2022/03/16 07:54:34;;;;;;;3.00;0.32;;;7.10;99.90;;;;;;5044458;28;20053;-82
2022/03/16 07:57:00;;;;;;;0.28;0.22;;;7.20;99.90;;;;;;5063710;28;20102;-82
2022/03/16 07:59:25;;;;;;;2.63;1.17;;;7.20;99.90;;;;;;5045135;28;20828;-81
2022/03/16 08:01:51;;;;;;;0.22;0.20;;;7.20;99.90;;;;;;5062413;28;20033;-82
2022/03/16 08:04:17;;;;;;;0.52;0.45;;;7.10;99.90;;;;;;5063074;28;20404;-82
2022/03/16 08:06:42;;;;;;;0.05;0.05;;;7.10;99.90;;;;;;5061185;28;20032;-82
2022/03/16 08:09:08;;;;;;;12.98;1.20;;;7.20;99.90;;;;;;5060855;28;20439;-81
2022/03/16 08:11:33;;;;;;;0.70;0.70;;;7.30;99.90;;;;;;5061422;28;20496;-83
2022/03/16 08:13:59;;;;;;;0.30;0.30;;;7.40;99.90;;;;;;5061161;28;20416;-81
2022/03/16 08:16:25;;;;;;;1.58;1.48;;;7.60;99.90;;;;;;5050025;28;20052;-81
2022/03/16 08:18:50;;;;;;;0.90;0.90;;;7.80;99.90;;;;;;5073731;28;20091;-81
2022/03/16 08:21:16;;;;;;;0.30;0.13;;;8.00;99.90;;;;;;5073682;28;20040;-81
2022/03/16 08:23:42;;;;;;;4.18;1.20;;;8.20;99.90;;;;;;5072565;28;20037;-81
2022/03/16 08:26:07;;;;;;;1.00;0.85;;;8.30;99.90;;;;;;5073729;28;20139;-82
2022/03/16 08:28:33;;;;;;;0.85;0.77;;;8.40;99.90;;;;;;5073360;28;20396;-82
2022/03/16 08:31:01;;;;;;;2.88;0.93;;;8.50;99.90;;;;;;5056581;28;20125;-82
2022/03/16 08:33:26;;;;;;;1.90;1.13;;;8.80;99.90;;;;;;5073283;28;20053;-81
2022/03/16 08:35:52;;;;;;;2.45;1.08;;;8.90;99.90;;;;;;5056619;28;20054;-82
2022/03/16 08:38:18;;;;;;;0.25;0.25;;;9.00;99.90;;;;;;5073179;28;20480;-82
2022/03/16 08:40:43;;;;;;;0.77;0.70;;;9.10;99.90;;;;;;5073254;28;20105;-82
2022/03/16 08:43:09;;;;;;;2.30;0.68;;;9.30;99.90;;;;;;5073132;28;20114;-82
2022/03/16 08:45:35;;;;;;;0.70;0.70;;;9.30;99.90;;;;;;5056885;28;20048;-82
2022/03/16 08:48:01;;;;;;;2.30;0.10;;;9.40;99.90;;;;;;5073105;28;20062;-82
2022/03/16 08:50:30;;;;;;;1.60;1.42;;;9.50;99.90;;;;;;5073005;28;20037;-82
2022/03/16 08:52:56;;;;;;;0.85;0.70;;;9.60;99.90;;;;;;5056301;28;20437;-81
2022/03/16 08:55:22;;;;;;;3.88;0.93;;;9.80;99.90;;;;;;5072969;28;20053;-82
2022/03/16 08:57:48;;;;;;;1.33;0.40;;;9.90;99.90;;;;;;5072778;28;20109;-82
2022/03/16 09:00:15;;;;;;;0.15;0.15;;;10.00;99.90;;;;;;5055893;28;20061;-82
2022/03/16 09:02:41;;;;;;;2.20;0.93;;;10.10;99.90;;;;;;5072944;28;20037;-82
2022/03/16 09:05:08;;;;;;;0.68;0.68;;;10.10;99.90;;;;;;5072657;28;20124;-82
2022/03/16 09:07:33;;;;;;;1.95;1.02;;;10.10;99.90;;;;;;5072871;28;20051;-82
2022/03/16 09:09:59;;;;;;;0.88;0.45;;;10.30;99.90;;;;;;5073226;28;20044;-82
2022/03/16 09:12:25;;;;;;;1.65;0.82;;;10.40;99.90;;;;;;5073216;28;20036;-82
2022/03/16 09:14:50;;;;;;;5.05;1.65;;;10.60;99.90;;;;;;5069177;28;20122;-83
2022/03/16 09:17:17;;;;;;;0.70;0.22;;;10.90;99.90;;;;;;5068308;28;20081;-83
2022/03/16 09:19:44;;;;;;;3.35;1.30;;;11.20;99.90;;;;;;5062619;28;20135;-83
2022/03/16 09:22:10;;;;;;;0.77;0.77;;;11.40;99.90;;;;;;5052371;28;20353;-83
2022/03/16 09:24:38;;;;;;;0.20;0.20;;;11.80;99.90;;;;;;5035725;28;20051;-81
2022/03/16 09:27:05;;;;;;;4.82;0.88;;;12.20;99.90;;;;;;5052407;28;20501;-81
2022/03/16 09:29:32;;;;;;;0.50;0.50;;;12.30;99.90;;;;;;5052530;28;20450;-81
2022/03/16 09:31:57;;;;;;;0.73;0.73;;;12.50;99.90;;;;;;5035804;28;20045;-81
2022/03/16 09:34:23;;;;;;;0.20;0.20;;;12.50;99.90;;;;;;5035628;28;20115;-81
2022/03/16 09:36:49;;;;;;;1.20;0.77;;;12.70;99.90;;;;;;5052284;28;20439;-81
2022/03/16 09:39:15;;;;;;;0.80;0.30;;;12.90;99.90;;;;;;5035936;28;20049;-81
2022/03/16 09:41:41;;;;;;;8.45;0.98;;;13.10;99.90;;;;;;5052574;28;20036;-81
2022/03/16 09:44:07;;;;;;;2.30;1.65;;;13.10;99.90;;;;;;5052036;28;20531;-82
2022/03/16 09:46:35;;;;;;;1.42;0.10;;;13.20;99.90;;;;;;5052371;28;20060;-81
2022/03/16 09:49:03;;;;;;;0.40;0.13;;;13.30;99.90;;;;;;5035600;28;20052;-81
2022/03/16 09:51:34;;;;;;;2.47;1.08;;;13.20;99.90;;;;;;5052568;28;20074;-82
2022/03/16 09:54:01;;;;;;;1.85;0.85;;;13.30;99.90;;;;;;5052470;28;20045;-81
2022/03/16 09:56:26;;;;;;;1.15;0.57;;;13.30;99.90;;;;;;5052239;28;20047;-81
2022/03/16 09:58:52;;;;;;;0.40;0.40;;;13.40;99.90;;;;;;5052496;28;20044;-81
2022/03/16 10:01:18;;;;;;;0.68;0.68;;;13.40;99.90;;;;;;5052435;28;20049;-81
2022/03/16 10:03:48;;;;;;;0.22;0.22;;;13.50;99.90;;;;;;5052078;28;20055;-81
2022/03/16 10:06:16;;;;;;;0.70;0.70;;;13.70;99.90;;;;;;5035871;28;20057;-81
2022/03/16 10:13:13;;;;;;;1.13;0.35;;;13.80;99.10;;;;;;5052287;28;20049;-81
2022/03/16 10:14:16;;;;;;;2.72;0.55;;;14.50;97.30;;;;;;5052912;28;20069;-81
2022/03/16 10:19:50;;;;;;;0.77;0.77;;;14.40;93.70;;;;;;5052102;28;20045;-81
2022/03/16 10:22:30;;;;;;;0.20;0.00;;;14.20;93.10;;;;;;5051795;28;20445;-81
2022/03/16 10:25:00;;;;;;;0.08;0.05;;;14.10;92.20;;;;;;5052012;28;20120;-81
2022/03/16 10:27:26;;;;;;;0.43;0.20;;;14.00;92.00;;;;;;5052118;28;20045;-81
2022/03/16 10:29:53;;;;;;;0.98;0.95;;;14.10;92.30;;;;;;5035417;28;20071;-81
2022/03/16 10:32:22;;;;;;;0.10;0.10;;;14.00;91.00;;;;;;5035092;28;20071;-81
2022/03/16 10:34:52;;;;;;;0.43;0.35;;;14.20;91.40;;;;;;5035419;28;20040;-81
2022/03/16 10:37:23;;;;;;;0.20;0.20;;;13.90;90.30;;;;;;5035361;28;20059;-81
2022/03/16 10:39:50;;;;;;;0.73;0.40;;;13.80;90.50;;;;;;5035146;28;20080;-81
2022/03/16 10:48:32;;;;;;;1.48;0.32;;;13.90;90.30;;;;;;5055512;28;19921;-81
2022/03/16 10:50:58;;;;;;;3.28;1.45;;;13.90;90.70;;;;;;5055419;28;20063;-79
2022/03/16 10:53:28;;;;;;;1.35;0.40;;;14.10;90.10;;;;;;5058915;28;20412;-81
2022/03/16 10:55:56;;;;;;;1.35;0.98;;;14.30;90.80;;;;;;5075880;28;20044;-81
2022/03/16 10:58:23;;;;;;;2.00;0.40;;;14.40;90.30;;;;;;5058483;28;20079;-81
2022/03/16 11:00:51;;;;;;;1.30;0.47;;;14.50;88.50;;;;;;5075260;28;20213;-81
2022/03/16 11:03:22;;;;;;;0.68;0.30;;;14.40;87.10;;;;;;5074963;28;20090;-81
2022/03/16 11:05:49;;;;;;;0.22;0.22;;;14.60;87.70;;;;;;5057095;28;20040;-82
2022/03/16 11:08:15;;;;;;;1.45;0.93;;;14.70;87.60;;;;;;5055032;28;20059;-82
2022/03/16 11:10:42;;;;;;;0.20;0.20;;;14.80;85.30;;;;;;5038583;28;20103;-81
2022/03/16 11:13:28;;;;;;;0.05;0.00;;;14.90;85.30;;;;;;5038563;28;20056;-81
2022/03/16 11:15:59;;;;;;;0.03;0.03;;;15.20;87.50;;;;;;5055079;28;20045;-81
2022/03/16 11:18:25;;;;;;;0.63;0.35;;;15.20;84.60;;;;;;5054472;28;20049;-81
2022/03/16 11:20:54;;;;;;;1.45;1.30;;;15.30;84.70;;;;;;5038112;28;20136;-81
2022/03/16 11:26:34;;;;;;;1.02;0.10;;;15.30;84.30;;;;;;5054935;28;20057;-81
2022/03/16 11:29:02;;;;;;;0.32;0.28;;;15.10;81.50;;;;;;5061320;28;20041;-82
2022/03/16 11:31:34;;;;;;;0.30;0.30;;;15.20;82.50;;;;;;5063282;28;20041;-82
2022/03/16 11:34:08;;;;;;;0.77;0.57;;;15.20;82.00;;;;;;5048517;28;20404;-82
2022/03/16 11:36:41;;;;;;;0.35;0.17;;;15.50;84.00;;;;;;5057163;28;20118;-81
2022/03/16 11:39:18;;;;;;;4.85;1.77;;;15.60;81.90;;;;;;5054449;28;20139;-81
2022/03/16 11:41:49;;;;;;;0.35;0.35;;;15.60;82.00;;;;;;5058948;28;20068;-79
2022/03/16 11:44:28;;;;;;;7.13;1.25;;;15.40;79.30;;;;;;5051679;28;20040;-79
2022/03/16 11:46:55;;;;;;;0.77;0.47;;;15.50;78.90;;;;;;5074764;28;20049;-80
2022/03/16 11:49:29;;;;;;;4.40;0.38;;;15.60;80.60;;;;;;5057629;28;20052;-80
2022/03/16 11:52:03;;;;;;;0.88;0.73;;;15.80;78.80;;;;;;5074331;28;20047;-80
2022/03/16 11:54:47;;;;;;;6.82;1.00;;;15.60;77.00;;;;;;5057856;28;20044;-80
2022/03/16 11:57:15;;;;;;;4.00;1.02;;;15.70;77.90;;;;;;5074212;28;20051;-80
2022/03/16 11:59:44;;;;;;;0.45;0.25;;;15.70;76.50;;;;;;5073348;28;20106;-80
2022/03/16 12:02:15;;;;;;;0.32;0.32;;;15.80;76.60;;;;;;5057286;28;20136;-80
2022/03/16 12:04:42;;;;;;;0.45;0.45;;;16.10;76.40;;;;;;5057842;28;20045;-80
2022/03/16 12:07:16;;;;;;;0.60;0.60;;;16.10;73.90;;;;;;5074007;28;20094;-80
2022/03/16 12:09:46;;;;;;;0.65;0.40;;;16.10;73.20;;;;;;5073697;28;20098;-80
2022/03/16 12:15:19;;;;;;;0.70;0.70;;;16.10;71.60;;;;;;5074552;28;20044;-80
2022/03/16 12:17:51;;;;;;;0.80;0.45;;;16.10;70.80;;;;;;5073694;28;20057;-80
2022/03/16 12:20:23;;;;;;;0.80;0.80;;;16.40;70.80;;;;;;5073535;28;20049;-80
2022/03/16 12:22:50;;;;;;;0.10;0.10;;;16.50;70.10;;;;;;5073816;28;20079;-80
2022/03/16 12:25:29;;;;;;;0.98;0.85;;;16.60;70.30;;;;;;5056538;28;20373;-80
2022/03/16 12:31:01;;;;;;;0.30;0.25;;;16.80;67.30;;;;;;5073525;28;20063;-80
2022/03/16 12:33:33;;;;;;;0.30;0.30;;;17.00;67.40;;;;;;5073372;28;20049;-80
2022/03/16 12:36:07;;;;;;;0.20;0.20;;;17.00;67.00;;;;;;5073299;28;20380;-80
2022/03/16 12:38:37;;;;;;;4.93;0.93;;;17.20;66.80;;;;;;5057273;28;20130;-80
2022/03/16 12:43:49;;;;;;;3.50;0.30;;;17.00;65.90;;;;;;5073147;28;20052;-80
2022/03/16 12:46:52;;;;;;;1.27;1.05;;;17.00;65.50;;;;;;5073009;28;20055;-80
2022/03/16 12:49:20;;;;;;;0.15;0.15;;;17.00;65.90;;;;;;5056287;28;20064;-80
2022/03/16 12:51:51;;;;;;;0.98;0.98;;;16.70;65.30;;;;;;5073013;28;20048;-80
2022/03/16 12:54:26;;;;;;;0.57;0.57;;;16.70;67.00;;;;;;5056534;28;20067;-80
2022/03/16 12:56:58;;;;;;;0.88;0.88;;;16.60;67.10;;;;;;5073780;28;20546;-79
2022/03/16 12:59:30;;;;;;;0.93;0.93;;;16.50;67.00;;;;;;5073574;28;20063;-79
2022/03/16 13:01:57;;;;;;;0.55;0.40;;;16.40;67.40;;;;;;5072937;28;20048;-80
2022/03/16 13:04:24;;;;;;;1.02;0.50;;;16.40;67.10;;;;;;5073330;28;20156;-80
2022/03/16 13:06:56;;;;;;;0.50;0.30;;;16.20;66.50;;;;;;5072835;28;20098;-79
2022/03/16 13:09:29;;;;;;;0.52;0.52;;;16.20;67.50;;;;;;5055783;28;20150;-79
2022/03/16 13:12:24;;;;;;;1.75;0.98;;;16.10;67.80;;;;;;5073350;28;20472;-79
2022/03/16 13:14:54;;;;;;;0.08;0.08;;;16.30;68.40;;;;;;5072213;28;20556;-79
2022/03/16 13:17:21;;;;;;;0.10;0.10;;;16.40;67.40;;;;;;5072281;28;20484;-80